Seaford, Delaware
Current Conditions -  °F | °C
As of 6:54 PM on Monday 24 Nov 2014 (Local Time) from KGED Reporting Station
Clear Clear  
Wind Chill: 65°   Ceiling: Unl
Heat Index: 65°   Visibility: 10mi
Dew Point: 59°   Wind: 8mph
Humidity: 81%   Direction: 180°S
Pressure: 29.75"   Gusts: NA
Location:  38.64°N, 75.61°W
Report Text: KGED 242354Z AUTO 18007KT 10SM CLR 18/15 A2975 RMK AO2 SLP072 T01830150 10228 20183 51015
Loading
Personal Weather Stations






























Interactive Weather Map New forecast layout! Learn more

10-Day Weather Forecast

Advertisements
Track Severe Weather on mobile